Time;durP1;ratioP1;P1;durP2;ratioP2;P2;SDS_P1;SDS_P2;PMS_P1;PMS_P2;Temp;Humidity;BMP_temperature;BMP_pressure;BME280_temperature;BME280_humidity;BME280_pressure;Samples;Min_cycle;Max_cycle;Signal;HPM_P1;HPM_P2
2023/09/12 00:00:47;;;;;;;5.45;3.60;;;;;;;26.88;43.53;98645.53;2085358;28;20308;-52
2023/09/12 00:01:47;;;;;;;4.13;3.70;;;;;;;26.88;43.79;98637.34;2090785;28;20056;-56
2023/09/12 00:02:49;;;;;;;3.95;3.50;;;;;;;26.87;43.99;98637.63;2085568;28;20131;-55
2023/09/12 00:03:50;;;;;;;6.53;3.70;;;;;;;26.87;43.93;98635.72;2087597;28;20079;-50
2023/09/12 00:04:52;;;;;;;4.18;3.78;;;;;;;26.88;43.91;98637.34;2085712;28;20166;-53
2023/09/12 00:05:53;;;;;;;4.32;3.92;;;;;;;26.86;43.88;98642.25;2085140;28;20097;-51
2023/09/12 00:06:55;;;;;;;4.70;3.58;;;;;;;26.87;43.62;98643.06;2082905;28;20127;-51
2023/09/12 00:07:56;;;;;;;5.88;3.38;;;;;;;26.84;44.04;98638.97;2090179;28;20048;-48
2023/09/12 00:08:58;;;;;;;3.67;3.00;;;;;;;26.86;43.57;98642.25;2088391;28;20072;-50
2023/09/12 00:09:59;;;;;;;5.88;3.70;;;;;;;26.87;43.83;98648.50;2088896;28;20510;-52
2023/09/12 00:11:06;;;;;;;4.93;3.75;;;;;;;26.85;43.79;98637.06;2085230;28;20089;-52
2023/09/12 00:12:08;;;;;;;3.78;3.30;;;;;;;26.86;44.09;98642.25;2087033;28;21095;-50
2023/09/12 00:13:11;;;;;;;4.43;3.50;;;;;;;26.85;43.96;98639.78;2086580;28;20052;-48
2023/09/12 00:14:15;;;;;;;4.65;4.25;;;;;;;26.85;43.63;98640.59;2089039;28;20063;-48
2023/09/12 00:15:19;;;;;;;4.97;4.25;;;;;;;26.84;43.79;98630.81;2083218;28;20574;-48
2023/09/12 00:16:20;;;;;;;3.83;3.53;;;;;;;26.84;43.67;98638.97;2087485;28;20193;-55
2023/09/12 00:17:22;;;;;;;6.10;3.92;;;;;;;26.83;44.00;98637.34;2086356;28;20056;-53
2023/09/12 00:18:23;;;;;;;4.88;3.60;;;;;;;26.83;43.75;98633.75;2087363;28;20044;-52
2023/09/12 00:19:25;;;;;;;3.97;3.45;;;;;;;26.81;44.02;98634.03;2086354;28;20591;-54
2023/09/12 00:20:26;;;;;;;4.97;3.05;;;;;;;26.81;43.63;98628.59;2085121;28;20517;-50
2023/09/12 00:21:28;;;;;;;3.80;3.15;;;;;;;26.79;43.70;98628.03;2088488;28;20155;-52
2023/09/12 00:22:28;;;;;;;4.53;3.85;;;;;;;26.79;44.09;98632.66;2085744;28;20049;-52
2023/09/12 00:23:31;;;;;;;4.70;3.75;;;;;;;26.77;44.07;98637.53;2086994;28;20079;-51
2023/09/12 00:24:32;;;;;;;5.50;4.57;;;;;;;26.74;44.26;98631.53;2085986;28;20052;-52
2023/09/12 00:25:33;;;;;;;6.60;3.85;;;;;;;26.71;44.09;98623.88;2087937;28;20128;-50
2023/09/12 00:26:34;;;;;;;4.32;3.08;;;;;;;26.75;44.00;98629.63;2089343;28;20067;-48
2023/09/12 00:27:36;;;;;;;4.50;3.80;;;;;;;26.73;44.22;98627.16;2087413;28;20147;-52
2023/09/12 00:28:38;;;;;;;5.85;3.65;;;;;;;26.77;43.99;98624.72;2086137;28;20048;-54
2023/09/12 00:29:40;;;;;;;6.05;3.95;;;;;;;26.80;44.03;98626.97;2088790;28;20124;-60
2023/09/12 00:30:41;;;;;;;6.65;3.47;;;;;;;26.81;43.82;98625.88;2088482;28;20411;-52
2023/09/12 00:31:43;;;;;;;5.03;3.35;;;;;;;26.83;44.06;98633.75;2087055;28;20060;-51
2023/09/12 00:32:45;;;;;;;8.82;4.35;;;;;;;26.77;44.57;98626.63;2088274;28;20052;-57
2023/09/12 00:33:47;;;;;;;5.10;4.03;;;;;;;26.72;44.57;98619.28;2088107;28;20083;-45
2023/09/12 00:34:48;;;;;;;4.15;3.83;;;;;;;26.74;44.31;98627.97;2089524;28;20052;-49
2023/09/12 00:35:49;;;;;;;3.97;3.53;;;;;;;26.79;44.45;98624.50;2087550;28;20369;-49
2023/09/12 00:36:51;;;;;;;4.47;3.45;;;;;;;26.80;44.58;98632.41;2087657;28;21216;-52
2023/09/12 00:37:51;;;;;;;5.20;3.20;;;;;;;26.82;44.27;98627.50;2087375;28;20057;-55
2023/09/12 00:38:53;;;;;;;4.50;3.65;;;;;;;26.83;44.39;98625.59;2087515;28;20127;-47
2023/09/12 00:39:54;;;;;;;4.93;3.40;;;;;;;26.86;44.35;98625.94;2087158;28;20052;-49
2023/09/12 00:40:56;;;;;;;7.40;4.50;;;;;;;26.84;44.52;98630.81;2088635;28;20140;-51
2023/09/12 00:41:57;;;;;;;5.63;3.58;;;;;;;26.79;44.16;98628.03;2087783;28;20076;-51
2023/09/12 00:42:58;;;;;;;3.78;3.40;;;;;;;26.79;44.70;98628.03;2087365;28;20049;-55
2023/09/12 00:44:02;;;;;;;3.92;3.50;;;;;;;26.79;44.74;98621.78;2088095;28;20052;-50
2023/09/12 00:45:03;;;;;;;4.05;3.60;;;;;;;26.77;44.58;98627.44;2089114;28;20127;-49
2023/09/12 00:46:05;;;;;;;3.55;3.22;;;;;;;26.80;44.70;98629.69;2086578;28;20530;-50
2023/09/12 00:47:06;;;;;;;4.05;3.42;;;;;;;26.82;44.46;98623.97;2088667;28;20514;-56
2023/09/12 00:48:08;;;;;;;4.60;3.08;;;;;;;26.84;44.53;98627.25;2089192;28;20297;-55
2023/09/12 00:49:12;;;;;;;4.38;3.53;;;;;;;26.80;44.62;98626.97;2081147;28;21248;-52
2023/09/12 00:50:14;;;;;;;3.95;3.55;;;;;;;26.80;44.78;98624.25;2084746;28;20056;-51
2023/09/12 00:51:18;;;;;;;4.57;3.88;;;;;;;26.77;44.78;98632.09;2089169;28;20063;-47
2023/09/12 00:52:20;;;;;;;5.38;4.85;;;;;;;26.74;45.12;98626.09;2087433;28;20045;-50
2023/09/12 00:53:22;;;;;;;3.85;3.50;;;;;;;26.77;44.83;98622.00;2088707;28;20049;-46
2023/09/12 00:54:24;;;;;;;3.97;3.55;;;;;;;26.80;44.93;98626.97;2086481;28;20036;-49
2023/09/12 00:55:26;;;;;;;4.40;4.00;;;;;;;26.80;44.65;98620.69;2088947;28;20041;-49
2023/09/12 00:56:27;;;;;;;4.00;3.70;;;;;;;26.80;44.51;98626.97;2087569;28;20143;-51
2023/09/12 00:57:31;;;;;;;5.00;4.10;;;;;;;26.80;45.14;98618.81;2086731;28;20045;-57
2023/09/12 00:58:32;;;;;;;3.78;3.20;;;;;;;26.83;44.75;98626.44;2088098;28;20059;-55
2023/09/12 00:59:35;;;;;;;4.20;3.72;;;;;;;26.79;44.54;98628.03;2086875;28;20586;-54
2023/09/12 01:00:37;;;;;;;3.80;3.38;;;;;;;26.78;44.63;98620.94;2088191;28;20414;-48
2023/09/12 01:01:38;;;;;;;6.90;3.78;;;;;;;26.81;44.54;98616.91;2087340;28;20052;-54
2023/09/12 01:02:42;;;;;;;4.40;4.00;;;;;;;26.80;44.76;98615.25;2086144;28;20142;-57
2023/09/12 01:03:43;;;;;;;3.85;3.47;;;;;;;26.80;44.72;98617.97;2089000;28;20139;-49
2023/09/12 01:04:45;;;;;;;4.43;3.40;;;;;;;26.80;44.61;98624.25;2087466;28;20453;-55
2023/09/12 01:05:46;;;;;;;4.20;3.80;;;;;;;26.81;44.63;98625.06;2084669;28;20052;-48
2023/09/12 01:06:49;;;;;;;3.72;3.42;;;;;;;26.82;45.00;98616.63;2085413;28;20071;-56
2023/09/12 01:07:50;;;;;;;4.38;3.72;;;;;;;26.79;44.86;98619.88;2086384;28;21028;-51
2023/09/12 01:08:52;;;;;;;5.45;3.55;;;;;;;26.81;45.01;98627.78;2087982;28;20052;-54
2023/09/12 01:09:53;;;;;;;4.00;3.45;;;;;;;26.81;44.44;98625.06;2088389;28;20317;-48
2023/09/12 01:10:58;;;;;;;3.85;3.55;;;;;;;26.81;44.87;98625.06;2086833;28;20076;-49
2023/09/12 01:11:59;;;;;;;4.55;4.15;;;;;;;26.78;44.65;98620.94;2089527;28;20049;-46
2023/09/12 01:13:01;;;;;;;4.32;3.28;;;;;;;26.79;44.73;98622.59;2086059;28;20551;-48
2023/09/12 01:14:02;;;;;;;3.72;2.78;;;;;;;26.80;44.62;98626.13;2087053;28;20056;-50
2023/09/12 01:15:13;;;;;;;4.43;3.47;;;;;;;26.80;44.80;98626.97;2084146;28;20051;-53
2023/09/12 01:16:14;;;;;;;4.95;3.65;;;;;;;26.79;44.55;98632.66;2087015;28;20510;-51
2023/09/12 01:17:16;;;;;;;6.53;3.55;;;;;;;26.79;44.89;98630.75;2085805;28;20041;-52
2023/09/12 01:18:17;;;;;;;5.40;3.47;;;;;;;26.78;44.62;98634.56;2087475;28;20143;-45
2023/09/12 01:19:20;;;;;;;4.50;4.10;;;;;;;26.78;44.74;98633.75;2082840;28;20943;-52
2023/09/12 01:20:25;;;;;;;7.35;3.70;;;;;;;26.76;44.81;98631.28;2082251;28;20139;-48
2023/09/12 01:21:48;;;;;;;6.28;4.25;;;;;;;26.73;44.97;98639.94;2083210;28;20060;-56
2023/09/12 01:23:05;;;;;;;5.07;3.08;;;;;;;26.73;44.93;98634.50;2085347;28;20049;-47
2023/09/12 01:25:06;;;;;;;5.00;3.65;;;;;;;26.65;44.89;98635.78;2085286;28;20056;-52
2023/09/12 01:26:24;;;;;;;4.00;3.60;;;;;;;26.62;45.02;98633.56;2086160;28;20391;-46
2023/09/12 01:27:31;;;;;;;3.67;3.35;;;;;;;26.66;44.92;98631.16;2087310;28;20297;-49
2023/09/12 01:28:34;;;;;;;3.90;3.55;;;;;;;26.69;44.44;98636.09;2082526;28;20049;-53
2023/09/12 01:29:37;;;;;;;5.68;3.10;;;;;;;26.72;44.55;98635.59;2084582;28;20139;-56
2023/09/12 01:30:41;;;;;;;5.68;4.03;;;;;;;26.69;44.53;98636.09;2087475;28;20495;-52
2023/09/12 01:31:46;;;;;;;4.40;4.00;;;;;;;26.67;44.67;98630.91;2084643;28;20056;-52
2023/09/12 01:32:47;;;;;;;6.18;3.45;;;;;;;26.69;44.55;98634.22;2086860;28;20052;-54
2023/09/12 01:33:49;;;;;;;4.55;3.22;;;;;;;26.70;44.81;98629.56;2085971;28;20413;-49
2023/09/12 01:34:50;;;;;;;4.55;3.25;;;;;;;26.76;44.73;98631.28;2085158;28;20418;-55
2023/09/12 01:35:51;;;;;;;4.07;3.47;;;;;;;26.74;44.75;98633.41;2087588;28;20139;-55
2023/09/12 01:36:52;;;;;;;4.10;3.70;;;;;;;26.76;44.72;98631.28;2085162;28;20415;-51
2023/09/12 01:37:55;;;;;;;7.00;3.80;;;;;;;26.74;44.46;98627.97;2085297;28;20131;-47
2023/09/12 01:38:56;;;;;;;5.22;3.25;;;;;;;26.74;44.87;98628.81;2086307;28;20114;-48
2023/09/12 01:39:58;;;;;;;4.28;3.88;;;;;;;26.75;44.74;98637.81;2087464;28;20052;-49
2023/09/12 01:40:59;;;;;;;4.45;4.05;;;;;;;26.71;44.49;98632.03;2083854;28;20570;-50
2023/09/12 01:42:02;;;;;;;3.80;3.40;;;;;;;26.69;44.40;98633.34;2086191;28;20052;-49
2023/09/12 01:43:06;;;;;;;4.38;3.72;;;;;;;26.66;44.23;98632.00;2085384;28;20075;-47
2023/09/12 01:44:10;;;;;;;8.68;4.05;;;;;;;26.66;44.72;98632.00;2085364;28;20078;-51
2023/09/12 01:45:15;;;;;;;5.80;3.85;;;;;;;26.68;44.52;98635.25;2084877;28;20139;-50
2023/09/12 01:46:20;;;;;;;4.13;3.28;;;;;;;26.71;44.42;98629.31;2086814;28;20081;-46
2023/09/12 01:47:22;;;;;;;8.05;3.47;;;;;;;26.72;44.30;98624.72;2084717;28;20094;-55
2023/09/12 01:48:28;;;;;;;4.18;3.75;;;;;;;26.70;44.05;98627.69;2085731;28;20058;-52
2023/09/12 01:49:31;;;;;;;7.10;4.75;;;;;;;26.65;44.44;98621.38;2086599;28;20048;-52
2023/09/12 01:50:35;;;;;;;4.85;3.53;;;;;;;26.65;44.28;98624.09;2089991;28;20049;-54
2023/09/12 01:51:36;;;;;;;5.10;3.42;;;;;;;26.58;44.73;98621.56;2085660;28;20121;-57
2023/09/12 01:52:39;;;;;;;4.07;3.65;;;;;;;26.60;44.43;98621.31;2085216;28;20052;-52
2023/09/12 01:53:40;;;;;;;4.40;3.00;;;;;;;26.65;44.41;98615.91;2085930;28;20056;-56
2023/09/12 01:54:42;;;;;;;3.90;3.50;;;;;;;26.58;45.04;98624.31;2088626;28;20403;-51
2023/09/12 01:55:44;;;;;;;3.53;3.22;;;;;;;26.56;44.78;98631.88;2085454;28;20045;-47
2023/09/12 01:56:45;;;;;;;5.47;4.00;;;;;;;26.51;45.05;98624.47;2087848;28;20127;-50
2023/09/12 01:57:48;;;;;;;4.25;3.60;;;;;;;26.46;45.25;98623.56;2085441;28;20116;-55
2023/09/12 01:58:50;;;;;;;4.32;3.60;;;;;;;26.43;45.15;98627.63;2086408;28;20776;-49
2023/09/12 01:59:52;;;;;;;4.75;3.78;;;;;;;26.50;45.17;98625.56;2085447;28;20051;-55
2023/09/12 02:00:53;;;;;;;5.22;3.67;;;;;;;26.54;44.83;98622.34;2085576;28;20063;-48
2023/09/12 02:01:55;;;;;;;5.43;3.97;;;;;;;26.57;44.73;98621.81;2087014;28;20135;-49
2023/09/12 02:02:56;;;;;;;4.30;3.65;;;;;;;26.60;44.89;98629.47;2086933;28;20064;-53
2023/09/12 02:03:59;;;;;;;4.43;3.28;;;;;;;26.60;44.43;98629.47;2086763;28;20052;-45
2023/09/12 02:05:08;;;;;;;4.38;3.97;;;;;;;26.59;44.76;98625.13;2084759;28;22397;-48
2023/09/12 02:06:10;;;;;;;4.93;3.58;;;;;;;26.60;44.46;98621.31;2086028;28;20106;-45
2023/09/12 02:07:10;;;;;;;3.53;2.78;;;;;;;26.65;44.32;98621.38;2085109;28;20526;-55
2023/09/12 02:08:11;;;;;;;4.50;3.35;;;;;;;26.66;44.39;98625.72;2091332;28;20080;-45
2023/09/12 02:09:13;;;;;;;4.70;4.20;;;;;;;26.66;44.24;98628.44;2085217;28;20729;-52
2023/09/12 02:10:14;;;;;;;4.20;3.55;;;;;;;26.63;44.53;98621.59;2087479;28;20307;-51
2023/09/12 02:11:16;;;;;;;6.03;4.00;;;;;;;26.65;44.63;98624.09;2085246;28;20612;-45
2023/09/12 02:12:17;;;;;;;4.03;3.63;;;;;;;26.63;44.23;98624.31;2088436;28;20072;-46
2023/09/12 02:13:19;;;;;;;4.28;3.65;;;;;;;26.66;44.41;98626.56;2084915;28;20081;-55
2023/09/12 02:14:22;;;;;;;5.65;3.85;;;;;;;26.66;44.65;98631.16;2087050;28;20071;-49
2023/09/12 02:15:23;;;;;;;4.00;3.70;;;;;;;26.63;44.53;98631.66;2083171;28;20049;-52
2023/09/12 02:16:24;;;;;;;4.45;4.05;;;;;;;26.66;44.34;98631.16;2083807;28;20076;-48
2023/09/12 02:17:26;;;;;;;3.42;3.13;;;;;;;26.66;44.18;98629.28;2084981;28;20133;-46
2023/09/12 02:18:27;;;;;;;4.13;3.33;;;;;;;26.67;44.58;98627.38;2086276;28;21826;-46
2023/09/12 02:19:29;;;;;;;3.78;3.30;;;;;;;26.68;44.40;98631.72;2081370;28;20052;-44
2023/09/12 02:20:30;;;;;;;3.92;3.40;;;;;;;26.69;44.25;98625.19;2085787;28;20386;-45
2023/09/12 02:21:30;;;;;;;6.03;4.15;;;;;;;26.73;44.59;98623.63;2083358;28;20367;-49
2023/09/12 02:22:32;;;;;;;3.63;3.33;;;;;;;26.72;44.49;98625.53;2085953;28;20045;-49
2023/09/12 02:23:33;;;;;;;3.97;3.63;;;;;;;26.71;44.19;98633.94;2085077;28;20049;-51
2023/09/12 02:24:35;;;;;;;4.10;3.63;;;;;;;26.70;44.58;98627.69;2084594;28;20051;-52
2023/09/12 02:25:37;;;;;;;5.60;3.72;;;;;;;26.67;44.59;98632.81;2084497;28;20048;-47
2023/09/12 02:26:39;;;;;;;4.93;3.65;;;;;;;26.68;44.79;98629.00;2088081;28;20044;-46
2023/09/12 02:27:40;;;;;;;3.88;3.45;;;;;;;26.65;44.42;98627.63;2082013;28;20052;-52
2023/09/12 02:28:41;;;;;;;5.35;3.92;;;;;;;26.67;44.70;98633.63;2087080;28;20603;-50
2023/09/12 02:29:44;;;;;;;5.20;3.55;;;;;;;26.65;44.76;98635.78;2085354;28;20490;-46
2023/09/12 02:30:46;;;;;;;4.78;3.35;;;;;;;26.63;44.79;98632.47;2086218;28;20053;-54
2023/09/12 02:31:47;;;;;;;3.75;2.95;;;;;;;26.65;44.44;98635.78;2085092;28;20056;-52
2023/09/12 02:32:48;;;;;;;3.55;3.25;;;;;;;26.67;44.56;98633.63;2086390;28;20050;-53
2023/09/12 02:33:50;;;;;;;3.17;2.90;;;;;;;26.67;44.34;98627.38;2087065;28;20055;-55
2023/09/12 02:34:53;;;;;;;6.50;3.03;;;;;;;26.69;44.65;98623.31;2086492;28;20462;-51
2023/09/12 02:35:54;;;;;;;4.07;3.65;;;;;;;26.67;44.40;98630.09;2084605;28;20290;-53
2023/09/12 02:36:56;;;;;;;4.28;3.88;;;;;;;26.70;44.59;98629.56;2085165;28;20072;-55
2023/09/12 02:37:57;;;;;;;6.97;3.40;;;;;;;26.69;44.68;98631.47;2084856;28;20491;-53
2023/09/12 02:38:58;;;;;;;3.05;2.85;;;;;;;26.70;44.27;98637.75;2085394;28;20077;-55
2023/09/12 02:39:59;;;;;;;4.07;2.92;;;;;;;26.65;44.50;98633.06;2082890;28;20415;-50
2023/09/12 02:41:02;;;;;;;3.50;3.08;;;;;;;26.63;44.29;98632.47;2085072;28;20204;-45
2023/09/12 02:42:03;;;;;;;3.92;3.60;;;;;;;26.67;44.29;98624.66;2086275;28;20049;-54
2023/09/12 02:43:05;;;;;;;4.03;3.58;;;;;;;26.65;44.66;98630.34;2085083;28;20051;-51
2023/09/12 02:44:06;;;;;;;3.92;3.10;;;;;;;26.65;44.69;98632.25;2083949;28;20410;-48
2023/09/12 02:45:11;;;;;;;5.05;4.03;;;;;;;26.63;44.46;98621.59;2086143;28;21550;-50
2023/09/12 02:46:11;;;;;;;6.05;4.28;;;;;;;26.63;44.33;98627.03;2087692;28;20423;-49
2023/09/12 02:47:13;;;;;;;5.47;3.88;;;;;;;26.59;44.91;98627.84;2084026;28;20059;-52
2023/09/12 02:48:14;;;;;;;5.00;3.47;;;;;;;26.62;44.67;98630.03;2086327;28;20048;-50
2023/09/12 02:49:16;;;;;;;5.20;3.40;;;;;;;26.57;44.76;98628.06;2083241;28;20059;-56
2023/09/12 02:50:17;;;;;;;3.70;3.35;;;;;;;26.59;44.86;98625.13;2085980;28;20147;-45
2023/09/12 02:51:19;;;;;;;3.75;3.10;;;;;;;26.62;44.84;98630.03;2085242;28;20048;-45
2023/09/12 02:52:20;;;;;;;4.00;3.60;;;;;;;26.60;44.56;98627.56;2083587;28;20478;-49
2023/09/12 02:53:22;;;;;;;7.45;3.53;;;;;;;26.57;44.88;98628.06;2081902;28;20135;-48
2023/09/12 02:54:22;;;;;;;4.35;3.88;;;;;;;26.55;44.88;98621.25;2081605;28;20499;-52
2023/09/12 02:55:24;;;;;;;4.53;3.80;;;;;;;26.58;44.83;98627.03;2083511;28;20579;-51
2023/09/12 02:56:25;;;;;;;4.13;3.47;;;;;;;26.59;44.67;98622.41;2086772;28;20048;-45
2023/09/12 02:57:27;;;;;;;4.43;4.00;;;;;;;26.54;45.19;98620.44;2082439;28;20505;-46
2023/09/12 02:58:28;;;;;;;5.72;3.92;;;;;;;26.54;45.38;98619.63;2086406;28;20114;-47
2023/09/12 02:59:30;;;;;;;4.45;4.05;;;;;;;26.54;45.31;98628.59;2083893;28;20098;-48
2023/09/12 03:00:33;;;;;;;4.70;3.92;;;;;;;26.51;45.32;98619.03;2086512;28;20052;-50
2023/09/12 03:01:35;;;;;;;4.28;3.88;;;;;;;26.52;45.36;98625.28;2080597;28;20051;-55
2023/09/12 03:02:35;;;;;;;4.65;3.65;;;;;;;26.49;45.38;98623.91;2087445;28;20045;-45
2023/09/12 03:03:37;;;;;;;4.13;3.50;;;;;;;26.45;45.47;98630.91;2084561;28;20056;-45
2023/09/12 03:04:38;;;;;;;4.53;3.80;;;;;;;26.39;45.58;98626.50;2086933;28;20093;-48
2023/09/12 03:05:40;;;;;;;5.20;4.32;;;;;;;26.43;45.33;98627.63;2083540;28;20086;-52
2023/09/12 03:06:41;;;;;;;5.03;3.42;;;;;;;26.45;45.31;98630.91;2085856;28;20297;-50
2023/09/12 03:07:43;;;;;;;4.53;4.13;;;;;;;26.47;45.12;98628.78;2082649;28;20051;-47
2023/09/12 03:08:44;;;;;;;4.10;3.70;;;;;;;26.54;45.40;98630.50;2087956;28;20041;-49
2023/09/12 03:09:49;;;;;;;4.28;3.60;;;;;;;26.55;45.22;98635.69;2088610;28;20119;-50
2023/09/12 03:10:54;;;;;;;5.28;4.10;;;;;;;26.60;45.13;98632.19;2087487;28;20084;-45
2023/09/12 03:11:56;;;;;;;8.35;3.65;;;;;;;26.58;44.75;98632.47;2086396;28;21178;-50
2023/09/12 03:12:57;;;;;;;4.82;3.65;;;;;;;26.59;45.00;98636.00;2085564;28;20053;-50
2023/09/12 03:13:59;;;;;;;6.05;3.53;;;;;;;26.62;44.97;98627.31;2083614;28;20481;-47
2023/09/12 03:15:00;;;;;;;3.97;3.40;;;;;;;26.63;45.10;98624.31;2086066;28;20094;-53
2023/09/12 03:16:04;;;;;;;3.53;3.22;;;;;;;26.60;45.13;98626.75;2084617;28;20047;-52
2023/09/12 03:17:06;;;;;;;3.83;3.47;;;;;;;26.58;44.90;98627.03;2085631;28;20414;-53
2023/09/12 03:18:11;;;;;;;6.95;3.60;;;;;;;26.58;45.06;98623.44;2085300;28;20134;-51
2023/09/12 03:19:11;;;;;;;3.75;3.25;;;;;;;26.58;45.27;98618.00;2086299;28;20052;-54
2023/09/12 03:20:13;;;;;;;6.60;3.80;;;;;;;26.61;45.10;98628.41;2084540;28;20467;-58
2023/09/12 03:21:14;;;;;;;4.72;3.60;;;;;;;26.60;45.20;98624.03;2087986;28;20534;-51
2023/09/12 03:22:16;;;;;;;5.15;3.60;;;;;;;26.58;45.31;98618.00;2086911;28;20700;-50
2023/09/12 03:23:17;;;;;;;7.03;3.22;;;;;;;26.59;45.22;98614.22;2089373;28;20048;-47
2023/09/12 03:24:21;;;;;;;3.60;3.30;;;;;;;26.62;45.07;98616.44;2089615;28;20084;-53
2023/09/12 03:25:21;;;;;;;5.95;3.47;;;;;;;26.61;44.71;98620.25;2087439;28;20057;-45
2023/09/12 03:26:23;;;;;;;4.45;4.05;;;;;;;26.61;45.01;98617.53;2089305;28;20140;-49
2023/09/12 03:27:24;;;;;;;4.75;3.55;;;;;;;26.62;45.17;98619.97;2087659;28;20498;-50
2023/09/12 03:28:26;;;;;;;4.70;3.25;;;;;;;26.63;45.19;98618.06;2090403;28;20043;-52
2023/09/12 03:29:27;;;;;;;6.70;3.88;;;;;;;26.63;44.97;98610.72;2087632;28;20038;-55
2023/09/12 03:30:29;;;;;;;4.53;4.10;;;;;;;26.61;45.03;98614.81;2090707;28;20115;-51
2023/09/12 03:31:31;;;;;;;4.00;3.70;;;;;;;26.60;45.11;98615.88;2088554;28;20040;-53
2023/09/12 03:32:33;;;;;;;3.58;3.10;;;;;;;26.51;45.48;98613.59;2087429;28;20056;-47
2023/09/12 03:33:34;;;;;;;3.45;3.15;;;;;;;26.54;45.50;98614.19;2090758;28;21769;-46
2023/09/12 03:34:36;;;;;;;5.93;3.28;;;;;;;26.53;45.17;98602.47;2089934;28;20410;-49
2023/09/12 03:35:36;;;;;;;4.85;3.75;;;;;;;26.59;45.19;98619.69;2089293;28;20040;-53
2023/09/12 03:36:38;;;;;;;4.13;3.78;;;;;;;26.59;45.39;98614.22;2089294;28;20052;-52
2023/09/12 03:37:42;;;;;;;4.28;3.88;;;;;;;26.59;45.15;98614.22;2087899;28;20407;-52
2023/09/12 03:38:44;;;;;;;5.07;3.70;;;;;;;26.57;45.74;98614.47;2088916;28;20041;-48
2023/09/12 03:39:45;;;;;;;6.97;3.63;;;;;;;26.56;45.83;98614.75;2086210;28;20045;-50
2023/09/12 03:40:47;;;;;;;3.85;2.85;;;;;;;26.56;45.90;98614.75;2085794;28;20048;-49
2023/09/12 03:41:48;;;;;;;4.15;3.70;;;;;;;26.51;46.16;98613.59;2087972;28;20048;-50
2023/09/12 03:42:49;;;;;;;5.13;4.22;;;;;;;26.50;45.89;98609.25;2085952;28;20068;-55
2023/09/12 03:43:50;;;;;;;4.43;4.03;;;;;;;26.50;45.95;98611.97;2087712;28;20110;-54
2023/09/12 03:44:52;;;;;;;3.90;3.53;;;;;;;26.49;45.80;98620.34;2086376;28;20153;-55
2023/09/12 03:45:54;;;;;;;4.95;3.92;;;;;;;26.48;46.42;98619.53;2090525;28;20052;-53
2023/09/12 03:46:58;;;;;;;5.53;3.83;;;;;;;26.47;45.83;98611.63;2090569;28;20122;-48
2023/09/12 03:47:58;;;;;;;5.10;4.03;;;;;;;26.48;45.88;98616.00;2086945;28;20709;-50
2023/09/12 03:49:00;;;;;;;4.55;3.22;;;;;;;26.49;46.23;98618.47;2089230;28;20059;-49
2023/09/12 03:50:02;;;;;;;4.53;4.10;;;;;;;26.45;46.00;98614.59;2086665;28;20110;-52
2023/09/12 03:51:04;;;;;;;5.28;4.10;;;;;;;26.45;45.96;98609.16;2087952;28;20244;-51
2023/09/12 03:52:05;;;;;;;4.70;4.07;;;;;;;26.40;46.15;98606.38;2084413;28;20123;-52
2023/09/12 03:53:07;;;;;;;4.20;3.75;;;;;;;26.42;46.65;98615.13;2088845;28;20758;-52
2023/09/12 03:54:08;;;;;;;4.00;3.53;;;;;;;26.40;46.20;98605.56;2088217;28;20048;-47
2023/09/12 03:55:10;;;;;;;5.35;3.83;;;;;;;26.36;46.60;98610.69;2088953;28;20048;-51
2023/09/12 03:56:12;;;;;;;4.70;4.20;;;;;;;26.38;46.45;98608.53;2087342;28;20055;-49
2023/09/12 03:57:14;;;;;;;4.13;3.72;;;;;;;26.40;46.09;98609.09;2086897;28;20077;-54
2023/09/12 03:58:15;;;;;;;4.72;4.30;;;;;;;26.40;46.60;98608.28;2089048;28;20113;-54
2023/09/12 03:59:17;;;;;;;4.82;3.30;;;;;;;26.36;46.71;98609.88;2088211;28;20048;-56
2023/09/12 04:00:18;;;;;;;4.35;3.95;;;;;;;26.35;46.85;98610.94;2088223;28;20044;-53
2023/09/12 04:01:20;;;;;;;3.95;3.58;;;;;;;26.29;46.40;98605.44;2087180;28;20454;-53
2023/09/12 04:02:22;;;;;;;4.07;3.67;;;;;;;26.22;46.73;98607.56;2086562;28;20041;-52
2023/09/12 04:03:24;;;;;;;6.60;4.30;;;;;;;26.20;47.06;98606.97;2087059;28;20056;-50
2023/09/12 04:04:24;;;;;;;8.52;4.10;;;;;;;26.19;46.92;98613.50;2087440;28;20052;-49
2023/09/12 04:05:25;;;;;;;3.97;3.67;;;;;;;26.15;47.22;98606.09;2086054;28;20159;-47
2023/09/12 04:06:27;;;;;;;4.85;3.90;;;;;;;26.13;47.24;98614.50;2091918;28;20056;-51
2023/09/12 04:07:28;;;;;;;4.65;4.20;;;;;;;26.19;47.14;98615.41;2088793;28;20055;-51
2023/09/12 04:08:32;;;;;;;6.75;4.25;;;;;;;26.19;46.78;98618.13;2090250;28;20048;-53
2023/09/12 04:09:32;;;;;;;4.57;3.92;;;;;;;26.17;46.77;98606.69;2089228;28;20057;-49
2023/09/12 04:10:34;;;;;;;4.32;3.60;;;;;;;26.07;47.65;98612.78;2090017;28;20060;-50
2023/09/12 04:11:35;;;;;;;6.22;3.60;;;;;;;26.08;47.69;98615.28;2087877;28;20053;-51
2023/09/12 04:12:37;;;;;;;4.65;4.25;;;;;;;26.10;47.03;98611.47;2086295;28;20139;-46
2023/09/12 04:13:38;;;;;;;4.28;3.67;;;;;;;26.05;47.31;98617.69;2086820;28;20064;-46
2023/09/12 04:14:40;;;;;;;4.88;3.92;;;;;;;26.05;47.40;98618.50;2089893;28;20869;-49
2023/09/12 04:15:40;;;;;;;4.85;4.35;;;;;;;26.10;47.47;98620.44;2087515;28;20055;-52
2023/09/12 04:16:42;;;;;;;4.95;3.67;;;;;;;26.13;47.36;98613.69;2087047;28;20478;-48
2023/09/12 04:17:45;;;;;;;5.43;3.50;;;;;;;26.14;47.22;98618.88;2087472;28;20426;-51
2023/09/12 04:18:46;;;;;;;4.85;4.15;;;;;;;26.05;47.51;98620.41;2085537;28;20093;-53
2023/09/12 04:19:47;;;;;;;4.03;3.63;;;;;;;26.10;47.29;98619.63;2087482;28;20041;-48
2023/09/12 04:20:49;;;;;;;8.50;3.60;;;;;;;26.16;47.29;98613.16;2087992;28;20657;-46
2023/09/12 04:21:50;;;;;;;8.45;3.72;;;;;;;26.18;46.84;98617.28;2088159;28;20215;-53
2023/09/12 04:22:52;;;;;;;4.03;3.55;;;;;;;26.22;47.03;98609.47;2088967;28;20559;-55
2023/09/12 04:23:53;;;;;;;3.97;3.38;;;;;;;26.20;46.73;98612.41;2089838;28;20335;-55
2023/09/12 04:24:55;;;;;;;4.72;3.53;;;;;;;26.22;46.87;98617.63;2086871;28;20057;-53
2023/09/12 04:26:00;;;;;;;4.13;3.83;;;;;;;26.20;46.87;98620.56;2088361;28;20052;-47
2023/09/12 04:27:03;;;;;;;5.25;3.42;;;;;;;26.17;46.92;98623.00;2087951;28;20050;-53
2023/09/12 04:28:04;;;;;;;4.25;3.42;;;;;;;26.12;47.66;98620.19;2087109;28;20056;-49
2023/09/12 04:29:07;;;;;;;4.20;3.35;;;;;;;26.07;47.59;98629.91;2088391;28;20053;-52
2023/09/12 04:30:08;;;;;;;4.50;3.92;;;;;;;26.12;47.03;98631.91;2085789;28;20048;-54
2023/09/12 04:31:10;;;;;;;4.53;3.90;;;;;;;26.13;47.45;98630.81;2085855;28;20118;-52
2023/09/12 04:32:11;;;;;;;4.53;3.70;;;;;;;26.16;47.35;98629.47;2090350;28;20982;-56
2023/09/12 04:33:14;;;;;;;6.35;3.83;;;;;;;26.16;47.41;98637.63;2089620;28;20159;-51
2023/09/12 04:34:15;;;;;;;8.75;4.25;;;;;;;26.11;47.49;98635.69;2088533;28;20076;-54
2023/09/12 04:35:19;;;;;;;4.78;3.83;;;;;;;26.13;47.17;98632.72;2089554;28;20071;-53
2023/09/12 04:36:21;;;;;;;4.72;3.97;;;;;;;26.10;47.55;98633.22;2088414;28;20516;-53
2023/09/12 04:37:22;;;;;;;4.88;4.15;;;;;;;26.00;47.51;98631.22;2089474;28;20090;-53
2023/09/12 04:38:24;;;;;;;4.22;3.75;;;;;;;26.01;47.68;98639.09;2087473;28;20533;-57
2023/09/12 04:39:25;;;;;;;4.78;4.05;;;;;;;26.04;47.39;98635.06;2087163;28;20477;-50
2023/09/12 04:40:26;;;;;;;6.32;4.88;;;;;;;26.08;47.59;98638.91;2087913;28;21014;-48
2023/09/12 04:41:27;;;;;;;4.25;3.85;;;;;;;26.10;47.12;98633.22;2088668;28;20126;-53
2023/09/12 04:42:29;;;;;;;3.92;3.35;;;;;;;26.11;47.04;98641.13;2089221;28;20238;-50
2023/09/12 04:43:30;;;;;;;4.43;3.90;;;;;;;26.13;47.09;98633.53;2088861;28;20044;-53
2023/09/12 04:44:36;;;;;;;4.63;3.97;;;;;;;26.16;47.23;98640.34;2087607;28;20045;-51
2023/09/12 04:45:37;;;;;;;4.90;4.13;;;;;;;26.14;46.91;98639.81;2085381;28;20140;-56
2023/09/12 04:46:39;;;;;;;3.95;3.65;;;;;;;26.13;46.84;98638.97;2087947;28;20537;-51
2023/09/12 04:47:40;;;;;;;6.68;4.22;;;;;;;26.14;47.33;98637.09;2087671;28;20422;-52
2023/09/12 04:48:43;;;;;;;5.97;3.45;;;;;;;26.16;47.19;98637.63;2087581;28;20139;-55
2023/09/12 04:49:44;;;;;;;5.20;3.70;;;;;;;26.16;46.93;98634.91;2085873;28;21242;-52
2023/09/12 04:50:46;;;;;;;5.45;4.50;;;;;;;26.16;47.35;98640.34;2086490;28;20044;-52
2023/09/12 04:51:47;;;;;;;5.25;4.03;;;;;;;26.15;47.02;98642.25;2086646;28;20410;-52
2023/09/12 04:52:49;;;;;;;7.05;3.80;;;;;;;26.14;47.07;98640.63;2086446;28;20131;-48
2023/09/12 04:53:51;;;;;;;5.68;3.92;;;;;;;26.15;47.28;98644.16;2088837;28;20399;-52